Arias, Mexico

4:10 PM MDT on July 23, 2017 (GMT -0600)
Gen Div P A Roberto Fierro | | Change Station

Elev 4459 ft 28.70 °N, 105.96 °W | Updated 21 minutes ago

Mostly Cloudy
Mostly Cloudy
79 °F
Feels Like 79 °F
N
8
Wind Variable Wind from ENE

Today
High -- | Low -- °F
--% Chance of Precip.
Yesterday
High -- | Low -- °F
Precip. -- in
Pressure 30.08 in
Visibility 10.0 miles
Clouds Scattered Clouds 2500 ft
Scattered Clouds 8000 ft
Mostly Cloudy 20000 ft
Dew Point 63 °F
Humidity 57%
Rainfall 0.00 in
Snow Depth Not available.
6:19 AM 8:00 PM
New Moon, 0% visible
METAR MMCU 232149Z 06007KT 10SM SCT025TCU SCT080 BKN200 26/17 A3008 RMK 8/272
Pressure 30.08 in
Visibility 10.0 miles
Clouds Scattered Clouds 2500 ft
Scattered Clouds 8000 ft
Mostly Cloudy 20000 ft
Dew Point 63 °F
Humidity 57%
Rainfall 0.00 in
Snow Depth Not available.
6:19 AM 8:00 PM
New Moon, 0% visible
METAR MMCU 232149Z 06007KT 10SM SCT025TCU SCT080 BKN200 26/17 A3008 RMK 8/272

Get Severe Weather Alerts

Thanks for signing up!

Be on the lookout for a verification email in your inbox.

You'll start receiving the daily forecast at 6 AM.

×

10-Day Weather Forecast

No radar image for this location.
×

Almanac

Astronomy

Jul. 23, 2017 Rise Set
Actual Time
Civil Twilight
Nautical Twilight
Astronomical Twilight
Moon
Length of Visible Light
Length of Day
Tomorrow will be .
, % of the Moon is Illuminated

Today's Extremes

Country Highs Country Lows

Community

WunderPhotos

Category 6

Welcome to Category 6. This is the collective home for Weather Underground's featured writeups by Dr. Jeff Masters (right), Bob Henson (left), Chris Burt, and other regular contributors.

Nearby

Air Quality

  Air Quality AQ Index Pollutant
Not available.

Snow Depth

Station Depth Elevation

Earthquake Activity

City Distance Mag. Time & Date
Minimum magnitude displayed is 2.5.

Coastal Water Temperatures

Place Temperature

Stations

Nearby Weather Stations

Station Location Temp. Windchill Dew Point Humidity Wind Precip. Elev Updated Type